»·PEaware :: N899M KRDD-KSAC

N899M :: KRDD-KSAC

FLIGHT INFORMATION

Flight Status: Arrived
Operator: Privately registered:
United States
More flights under this callsign
Pilot: Robert C. (30425)
Aircraft: Unknown
(EPIC)
More flights by this aircraft type
Origin: KRDD Redding Mun
United States
Destination: KSAC Sacramento Executive
United States
More flights between these airports :: More routes between these airports
Route: RBL ILA TAGNE KSAC
File this flight plan on PilotEdge
Remarks:
Altitude:
(Current/Filed)
5,500ft
Speed:
(Current/Filed)
250kts
Departed: 09-Sep-20 08:12 PM
Arrived: 09-Sep-20 08:57 PM
Distance/Time
Traveled:
125nm/0:45
Distance/Time
To Go:
Arrived

Flight Plot

Page will automatically refresh every two minutes.

Flight plan parsing failed; only flown route is shown


Map Options




Map Legend


Flown Route
Filed Route
Departure Airport
Arrival Airport
Navaid (VOR, NDB)
Fix

Horizontal Profiles

Position Reports

Time Latitude Longitude Heading Altitude Ground
Speed
09-Sep-20 20:01 40.508973 -122.299049 115 499ft 0kts
09-Sep-20 20:02 40.508973 -122.299049 115 499ft 0kts
09-Sep-20 20:03 40.508973 -122.299049 115 499ft 0kts
09-Sep-20 20:04 40.508973 -122.299049 115 499ft 0kts
09-Sep-20 20:05 40.508973 -122.299049 115 499ft 0kts
09-Sep-20 20:06 40.508973 -122.299047 115 499ft 0kts
09-Sep-20 20:07 40.506952 -122.298551 176 498ft 14kts
09-Sep-20 20:08 40.503414 -122.297889 138 496ft 8kts
09-Sep-20 20:09 40.501957 -122.295973 135 496ft 0kts
09-Sep-20 20:10 40.501469 -122.295185 94 495ft 9kts
09-Sep-20 20:11 40.506440 -122.294933 359 497ft 109kts
09-Sep-20 20:12 40.549958 -122.303764 312 1649ft 181kts
09-Sep-20 20:13 40.530420 -122.347180 178 2743ft 186kts
09-Sep-20 20:14 40.479495 -122.345310 178 3657ft 182kts
09-Sep-20 20:15 40.429077 -122.335323 165 4462ft 185kts
09-Sep-20 20:16 40.378650 -122.320010 167 5240ft 188kts
09-Sep-20 20:17 40.325822 -122.304182 167 5519ft 217kts
09-Sep-20 20:18 40.259631 -122.284346 167 5592ft 256kts
09-Sep-20 20:19 40.189641 -122.263408 167 5591ft 260kts
09-Sep-20 20:20 40.119200 -122.242377 167 5591ft 259kts
09-Sep-20 20:21 40.048656 -122.225969 171 5589ft 254kts
09-Sep-20 20:22 39.978329 -122.211470 171 5592ft 260kts
09-Sep-20 20:23 39.906171 -122.196637 171 5591ft 264kts
09-Sep-20 20:24 39.835038 -122.182044 171 5591ft 265kts
09-Sep-20 20:25 39.762158 -122.167126 171 5591ft 265kts
09-Sep-20 20:26 39.694450 -122.153285 171 5596ft 240kts
09-Sep-20 20:27 39.625234 -122.139183 171 5592ft 259kts
09-Sep-20 20:28 39.553221 -122.124533 171 5591ft 264kts
09-Sep-20 20:29 39.480607 -122.109792 171 5591ft 265kts
09-Sep-20 20:30 39.407781 -122.095038 171 5591ft 265kts
09-Sep-20 20:31 39.334942 -122.080313 171 5591ft 265kts
09-Sep-20 20:32 39.262147 -122.065628 171 5591ft 265kts
09-Sep-20 20:33 39.189199 -122.050943 171 5591ft 265kts
09-Sep-20 20:34 39.116436 -122.036326 171 5591ft 265kts
09-Sep-20 20:35 39.046245 -122.009737 152 5592ft 265kts
09-Sep-20 20:36 38.981014 -121.965184 151 5556ft 266kts
09-Sep-20 20:37 38.916385 -121.920824 151 5039ft 250kts
09-Sep-20 20:38 38.859212 -121.881652 151 3882ft 232kts
09-Sep-20 20:39 38.801439 -121.849355 167 2984ft 211kts
09-Sep-20 20:40 38.748260 -121.839484 172 2991ft 180kts
09-Sep-20 20:41 38.699600 -121.833610 174 2865ft 174kts
09-Sep-20 20:42 38.652767 -121.827667 169 2646ft 161kts
09-Sep-20 20:43 38.610844 -121.813635 157 2429ft 151kts
09-Sep-20 20:44 38.574566 -121.788665 141 2221ft 146kts
09-Sep-20 20:45 38.552151 -121.746283 121 2021ft 143kts
09-Sep-20 20:46 38.522508 -121.713855 148 1823ft 142kts
09-Sep-20 20:47 38.488631 -121.687547 148 1623ft 142kts
09-Sep-20 20:48 38.455505 -121.661672 148 1550ft 134kts
09-Sep-20 20:49 38.459710 -121.622239 61 1612ft 148kts
09-Sep-20 20:50 38.477769 -121.579410 61 1270ft 109kts
09-Sep-20 20:51 38.493360 -121.542388 55 1042ft 113kts
09-Sep-20 20:52 38.515760 -121.520943 35 1078ft 104kts
09-Sep-20 20:53 38.542019 -121.496892 35 1058ft 122kts
09-Sep-20 20:54 38.532970 -121.472415 232 868ft 98kts
09-Sep-20 20:55 38.515489 -121.492015 211 23ft 73kts
09-Sep-20 20:56 38.513576 -121.495033 272 22ft 0kts
09-Sep-20 20:57 38.513567 -121.495976 271 22ft 0kts

Navigation Log

Ident Type
Flight plan parsing failed, navigation log unavailable